sensor_id;sensor_type;location;lat;lon;timestamp;P1;durP1;ratioP1;P2;durP2;ratioP2
73678;SDS011;61978;52.742;16.962;2023-10-31T00:01:35;34.80;;;22.90;;
73678;SDS011;61978;52.742;16.962;2023-10-31T00:04:00;37.10;;;22.70;;
73678;SDS011;61978;52.742;16.962;2023-10-31T00:06:26;31.70;;;21.40;;
73678;SDS011;61978;52.742;16.962;2023-10-31T00:08:52;30.70;;;21.40;;
73678;SDS011;61978;52.742;16.962;2023-10-31T00:11:17;35.40;;;21.90;;
73678;SDS011;61978;52.742;16.962;2023-10-31T00:13:43;31.50;;;19.50;;
73678;SDS011;61978;52.742;16.962;2023-10-31T00:16:09;35.80;;;20.70;;
73678;SDS011;61978;52.742;16.962;2023-10-31T00:18:35;30.50;;;20.40;;
73678;SDS011;61978;52.742;16.962;2023-10-31T00:21:00;28.80;;;18.80;;
73678;SDS011;61978;52.742;16.962;2023-10-31T00:23:28;31.00;;;19.40;;
73678;SDS011;61978;52.742;16.962;2023-10-31T00:25:54;28.40;;;18.00;;
73678;SDS011;61978;52.742;16.962;2023-10-31T00:28:19;34.30;;;18.80;;
73678;SDS011;61978;52.742;16.962;2023-10-31T00:30:45;31.30;;;18.80;;
73678;SDS011;61978;52.742;16.962;2023-10-31T00:33:11;34.50;;;19.30;;
73678;SDS011;61978;52.742;16.962;2023-10-31T00:35:36;32.20;;;19.40;;
73678;SDS011;61978;52.742;16.962;2023-10-31T00:38:03;31.00;;;20.90;;
73678;SDS011;61978;52.742;16.962;2023-10-31T00:40:28;30.30;;;20.20;;
73678;SDS011;61978;52.742;16.962;2023-10-31T00:42:56;31.70;;;19.20;;
73678;SDS011;61978;52.742;16.962;2023-10-31T00:45:23;27.10;;;19.10;;
73678;SDS011;61978;52.742;16.962;2023-10-31T00:47:49;27.60;;;19.00;;
73678;SDS011;61978;52.742;16.962;2023-10-31T00:50:14;28.40;;;18.40;;
73678;SDS011;61978;52.742;16.962;2023-10-31T00:52:40;29.30;;;19.20;;
73678;SDS011;61978;52.742;16.962;2023-10-31T00:55:06;27.50;;;17.70;;
73678;SDS011;61978;52.742;16.962;2023-10-31T00:57:31;29.80;;;18.20;;
73678;SDS011;61978;52.742;16.962;2023-10-31T00:59:57;28.90;;;17.50;;
73678;SDS011;61978;52.742;16.962;2023-10-31T01:02:23;28.80;;;18.00;;
73678;SDS011;61978;52.742;16.962;2023-10-31T01:04:49;23.70;;;16.80;;
73678;SDS011;61978;52.742;16.962;2023-10-31T01:07:14;29.90;;;17.10;;
73678;SDS011;61978;52.742;16.962;2023-10-31T01:09:42;26.60;;;17.50;;
73678;SDS011;61978;52.742;16.962;2023-10-31T01:12:09;28.50;;;17.40;;
73678;SDS011;61978;52.742;16.962;2023-10-31T01:14:37;29.40;;;16.40;;
73678;SDS011;61978;52.742;16.962;2023-10-31T01:17:03;27.70;;;16.80;;
73678;SDS011;61978;52.742;16.962;2023-10-31T01:19:28;24.50;;;16.40;;
73678;SDS011;61978;52.742;16.962;2023-10-31T01:21:54;24.00;;;16.60;;
73678;SDS011;61978;52.742;16.962;2023-10-31T01:24:20;21.80;;;15.60;;
73678;SDS011;61978;52.742;16.962;2023-10-31T01:26:46;23.80;;;15.50;;
73678;SDS011;61978;52.742;16.962;2023-10-31T01:29:12;21.60;;;15.10;;
73678;SDS011;61978;52.742;16.962;2023-10-31T01:31:40;27.20;;;14.90;;
73678;SDS011;61978;52.742;16.962;2023-10-31T01:34:06;25.40;;;14.60;;
73678;SDS011;61978;52.742;16.962;2023-10-31T01:36:31;24.20;;;15.80;;
73678;SDS011;61978;52.742;16.962;2023-10-31T01:38:57;22.80;;;15.10;;
73678;SDS011;61978;52.742;16.962;2023-10-31T01:41:23;22.10;;;15.10;;
73678;SDS011;61978;52.742;16.962;2023-10-31T01:43:48;22.90;;;14.40;;
73678;SDS011;61978;52.742;16.962;2023-10-31T01:46:14;22.90;;;14.30;;
73678;SDS011;61978;52.742;16.962;2023-10-31T01:48:40;18.60;;;12.20;;
73678;SDS011;61978;52.742;16.962;2023-10-31T01:51:05;21.40;;;10.40;;
73678;SDS011;61978;52.742;16.962;2023-10-31T01:53:31;18.10;;;11.90;;
73678;SDS011;61978;52.742;16.962;2023-10-31T01:55:59;20.60;;;11.50;;
73678;SDS011;61978;52.742;16.962;2023-10-31T01:58:34;19.30;;;11.00;;
73678;SDS011;61978;52.742;16.962;2023-10-31T02:01:00;22.50;;;12.20;;
73678;SDS011;61978;52.742;16.962;2023-10-31T02:03:29;20.50;;;12.60;;
73678;SDS011;61978;52.742;16.962;2023-10-31T02:05:55;20.00;;;11.90;;
73678;SDS011;61978;52.742;16.962;2023-10-31T02:08:21;24.40;;;12.50;;
73678;SDS011;61978;52.742;16.962;2023-10-31T02:10:47;21.50;;;10.80;;
73678;SDS011;61978;52.742;16.962;2023-10-31T02:13:13;23.40;;;12.80;;
73678;SDS011;61978;52.742;16.962;2023-10-31T02:15:39;22.40;;;12.20;;
73678;SDS011;61978;52.742;16.962;2023-10-31T02:18:05;21.20;;;12.30;;
73678;SDS011;61978;52.742;16.962;2023-10-31T02:20:31;20.50;;;11.60;;
73678;SDS011;61978;52.742;16.962;2023-10-31T02:22:56;23.70;;;10.90;;
73678;SDS011;61978;52.742;16.962;2023-10-31T02:25:22;23.00;;;13.00;;
73678;SDS011;61978;52.742;16.962;2023-10-31T02:27:48;18.90;;;12.70;;
73678;SDS011;61978;52.742;16.962;2023-10-31T02:30:13;20.50;;;11.40;;
73678;SDS011;61978;52.742;16.962;2023-10-31T02:32:40;25.20;;;13.10;;
73678;SDS011;61978;52.742;16.962;2023-10-31T02:35:06;19.70;;;10.80;;
73678;SDS011;61978;52.742;16.962;2023-10-31T02:37:32;24.60;;;11.90;;
73678;SDS011;61978;52.742;16.962;2023-10-31T02:39:58;23.10;;;11.60;;
73678;SDS011;61978;52.742;16.962;2023-10-31T02:42:25;22.30;;;11.20;;
73678;SDS011;61978;52.742;16.962;2023-10-31T02:44:50;20.40;;;11.00;;
73678;SDS011;61978;52.742;16.962;2023-10-31T02:47:16;13.90;;;10.30;;
73678;SDS011;61978;52.742;16.962;2023-10-31T02:49:42;16.10;;;10.40;;
73678;SDS011;61978;52.742;16.962;2023-10-31T02:52:08;19.50;;;10.50;;
73678;SDS011;61978;52.742;16.962;2023-10-31T02:54:33;19.50;;;10.70;;
73678;SDS011;61978;52.742;16.962;2023-10-31T02:56:59;22.40;;;11.00;;
73678;SDS011;61978;52.742;16.962;2023-10-31T02:59:25;19.20;;;10.10;;
73678;SDS011;61978;52.742;16.962;2023-10-31T03:01:51;16.00;;;9.40;;
73678;SDS011;61978;52.742;16.962;2023-10-31T03:04:17;17.80;;;10.40;;
73678;SDS011;61978;52.742;16.962;2023-10-31T03:06:43;18.70;;;11.20;;
73678;SDS011;61978;52.742;16.962;2023-10-31T03:09:09;19.90;;;10.20;;
73678;SDS011;61978;52.742;16.962;2023-10-31T03:11:35;20.20;;;10.50;;
73678;SDS011;61978;52.742;16.962;2023-10-31T03:14:01;16.80;;;10.50;;
73678;SDS011;61978;52.742;16.962;2023-10-31T03:16:26;20.70;;;10.40;;
73678;SDS011;61978;52.742;16.962;2023-10-31T03:18:52;22.30;;;10.50;;
73678;SDS011;61978;52.742;16.962;2023-10-31T03:21:18;20.90;;;10.30;;
73678;SDS011;61978;52.742;16.962;2023-10-31T03:23:47;16.70;;;10.50;;
73678;SDS011;61978;52.742;16.962;2023-10-31T03:26:18;15.40;;;9.80;;
73678;SDS011;61978;52.742;16.962;2023-10-31T03:28:44;20.20;;;10.30;;
73678;SDS011;61978;52.742;16.962;2023-10-31T03:31:13;24.30;;;10.40;;
73678;SDS011;61978;52.742;16.962;2023-10-31T03:33:40;18.70;;;10.10;;
73678;SDS011;61978;52.742;16.962;2023-10-31T03:36:05;17.70;;;10.20;;
73678;SDS011;61978;52.742;16.962;2023-10-31T03:38:32;18.00;;;9.80;;
73678;SDS011;61978;52.742;16.962;2023-10-31T03:40:57;13.00;;;9.20;;
73678;SDS011;61978;52.742;16.962;2023-10-31T03:43:23;18.00;;;9.40;;
73678;SDS011;61978;52.742;16.962;2023-10-31T03:45:49;18.10;;;10.20;;
73678;SDS011;61978;52.742;16.962;2023-10-31T03:48:17;19.60;;;9.60;;
73678;SDS011;61978;52.742;16.962;2023-10-31T03:50:43;17.30;;;9.10;;
73678;SDS011;61978;52.742;16.962;2023-10-31T03:53:10;18.80;;;9.50;;
73678;SDS011;61978;52.742;16.962;2023-10-31T03:55:36;19.10;;;9.70;;
73678;SDS011;61978;52.742;16.962;2023-10-31T03:58:01;22.40;;;10.10;;
73678;SDS011;61978;52.742;16.962;2023-10-31T04:00:27;22.90;;;10.00;;
73678;SDS011;61978;52.742;16.962;2023-10-31T04:02:53;13.00;;;8.60;;
73678;SDS011;61978;52.742;16.962;2023-10-31T04:05:20;14.00;;;10.00;;
73678;SDS011;61978;52.742;16.962;2023-10-31T04:07:46;18.60;;;11.20;;
73678;SDS011;61978;52.742;16.962;2023-10-31T04:10:12;22.70;;;10.20;;
73678;SDS011;61978;52.742;16.962;2023-10-31T04:12:38;20.80;;;11.60;;
73678;SDS011;61978;52.742;16.962;2023-10-31T04:15:04;15.70;;;11.00;;
73678;SDS011;61978;52.742;16.962;2023-10-31T04:17:29;19.70;;;11.10;;
73678;SDS011;61978;52.742;16.962;2023-10-31T04:19:55;16.10;;;11.30;;
73678;SDS011;61978;52.742;16.962;2023-10-31T04:22:21;15.60;;;11.00;;
73678;SDS011;61978;52.742;16.962;2023-10-31T04:24:46;18.10;;;10.30;;
73678;SDS011;61978;52.742;16.962;2023-10-31T04:27:13;21.20;;;9.90;;
73678;SDS011;61978;52.742;16.962;2023-10-31T04:29:39;18.00;;;11.60;;
73678;SDS011;61978;52.742;16.962;2023-10-31T04:32:05;20.20;;;10.70;;
73678;SDS011;61978;52.742;16.962;2023-10-31T04:34:31;19.50;;;10.30;;
73678;SDS011;61978;52.742;16.962;2023-10-31T04:36:56;20.40;;;10.90;;
73678;SDS011;61978;52.742;16.962;2023-10-31T04:39:23;13.60;;;9.10;;
73678;SDS011;61978;52.742;16.962;2023-10-31T04:41:48;19.70;;;10.30;;
73678;SDS011;61978;52.742;16.962;2023-10-31T04:44:14;15.20;;;9.50;;
73678;SDS011;61978;52.742;16.962;2023-10-31T04:46:40;16.00;;;9.70;;
73678;SDS011;61978;52.742;16.962;2023-10-31T04:49:06;17.90;;;10.10;;
73678;SDS011;61978;52.742;16.962;2023-10-31T04:51:34;17.30;;;8.70;;
73678;SDS011;61978;52.742;16.962;2023-10-31T04:54:00;14.40;;;8.20;;
73678;SDS011;61978;52.742;16.962;2023-10-31T04:56:27;13.50;;;8.50;;
73678;SDS011;61978;52.742;16.962;2023-10-31T04:58:52;11.70;;;7.50;;
73678;SDS011;61978;52.742;16.962;2023-10-31T05:01:18;10.30;;;7.30;;
73678;SDS011;61978;52.742;16.962;2023-10-31T05:03:44;13.50;;;7.90;;
73678;SDS011;61978;52.742;16.962;2023-10-31T05:06:12;14.50;;;8.00;;
73678;SDS011;61978;52.742;16.962;2023-10-31T05:08:38;16.20;;;7.60;;
73678;SDS011;61978;52.742;16.962;2023-10-31T05:11:03;14.40;;;8.50;;
73678;SDS011;61978;52.742;16.962;2023-10-31T05:13:29;18.60;;;8.50;;
73678;SDS011;61978;52.742;16.962;2023-10-31T05:15:55;14.90;;;8.30;;
73678;SDS011;61978;52.742;16.962;2023-10-31T05:18:20;13.20;;;7.60;;
73678;SDS011;61978;52.742;16.962;2023-10-31T05:20:46;18.70;;;8.30;;
73678;SDS011;61978;52.742;16.962;2023-10-31T05:23:12;13.20;;;8.20;;
73678;SDS011;61978;52.742;16.962;2023-10-31T05:25:38;18.00;;;8.70;;
73678;SDS011;61978;52.742;16.962;2023-10-31T05:28:04;16.50;;;8.90;;
73678;SDS011;61978;52.742;16.962;2023-10-31T05:30:30;16.80;;;8.50;;
73678;SDS011;61978;52.742;16.962;2023-10-31T05:32:55;16.40;;;9.60;;
73678;SDS011;61978;52.742;16.962;2023-10-31T05:35:21;19.90;;;9.30;;
73678;SDS011;61978;52.742;16.962;2023-10-31T05:37:47;14.50;;;9.20;;
73678;SDS011;61978;52.742;16.962;2023-10-31T05:40:12;13.60;;;9.40;;
73678;SDS011;61978;52.742;16.962;2023-10-31T05:42:39;20.10;;;10.70;;
73678;SDS011;61978;52.742;16.962;2023-10-31T05:45:05;15.40;;;10.40;;
73678;SDS011;61978;52.742;16.962;2023-10-31T05:47:30;23.00;;;10.40;;
73678;SDS011;61978;52.742;16.962;2023-10-31T05:49:56;16.60;;;10.60;;
73678;SDS011;61978;52.742;16.962;2023-10-31T05:52:22;18.10;;;11.40;;
73678;SDS011;61978;52.742;16.962;2023-10-31T05:54:48;17.70;;;10.40;;
73678;SDS011;61978;52.742;16.962;2023-10-31T05:57:14;23.40;;;11.70;;
73678;SDS011;61978;52.742;16.962;2023-10-31T05:59:40;19.20;;;11.20;;
73678;SDS011;61978;52.742;16.962;2023-10-31T06:02:05;19.60;;;11.10;;
73678;SDS011;61978;52.742;16.962;2023-10-31T06:04:31;22.00;;;11.00;;
73678;SDS011;61978;52.742;16.962;2023-10-31T06:06:56;18.40;;;11.30;;
73678;SDS011;61978;52.742;16.962;2023-10-31T06:09:22;18.60;;;11.70;;
73678;SDS011;61978;52.742;16.962;2023-10-31T06:11:48;18.60;;;11.80;;
73678;SDS011;61978;52.742;16.962;2023-10-31T06:14:14;18.10;;;11.30;;
73678;SDS011;61978;52.742;16.962;2023-10-31T06:16:40;16.20;;;12.30;;
73678;SDS011;61978;52.742;16.962;2023-10-31T06:19:06;20.80;;;12.60;;
73678;SDS011;61978;52.742;16.962;2023-10-31T06:21:32;26.70;;;12.60;;
73678;SDS011;61978;52.742;16.962;2023-10-31T06:23:58;21.30;;;12.80;;
73678;SDS011;61978;52.742;16.962;2023-10-31T06:26:23;21.00;;;13.00;;
73678;SDS011;61978;52.742;16.962;2023-10-31T06:28:49;19.50;;;13.00;;
73678;SDS011;61978;52.742;16.962;2023-10-31T06:31:15;21.20;;;13.10;;
73678;SDS011;61978;52.742;16.962;2023-10-31T06:33:40;24.50;;;12.80;;
73678;SDS011;61978;52.742;16.962;2023-10-31T06:36:06;21.30;;;13.10;;
73678;SDS011;61978;52.742;16.962;2023-10-31T06:38:32;17.20;;;12.70;;
73678;SDS011;61978;52.742;16.962;2023-10-31T06:40:58;17.70;;;13.10;;
73678;SDS011;61978;52.742;16.962;2023-10-31T06:43:24;15.90;;;12.30;;
73678;SDS011;61978;52.742;16.962;2023-10-31T06:45:50;19.30;;;12.90;;
73678;SDS011;61978;52.742;16.962;2023-10-31T06:48:15;19.90;;;14.10;;
73678;SDS011;61978;52.742;16.962;2023-10-31T06:50:41;22.50;;;13.80;;
73678;SDS011;61978;52.742;16.962;2023-10-31T06:53:07;20.90;;;14.20;;
73678;SDS011;61978;52.742;16.962;2023-10-31T06:55:32;23.70;;;13.80;;
73678;SDS011;61978;52.742;16.962;2023-10-31T06:57:58;22.50;;;13.80;;
73678;SDS011;61978;52.742;16.962;2023-10-31T07:00:24;25.60;;;15.60;;
73678;SDS011;61978;52.742;16.962;2023-10-31T07:02:49;21.60;;;14.20;;
73678;SDS011;61978;52.742;16.962;2023-10-31T07:05:15;20.90;;;15.00;;
73678;SDS011;61978;52.742;16.962;2023-10-31T07:07:41;27.00;;;15.80;;
73678;SDS011;61978;52.742;16.962;2023-10-31T07:10:07;29.00;;;15.00;;
73678;SDS011;61978;52.742;16.962;2023-10-31T07:12:34;22.10;;;15.00;;
73678;SDS011;61978;52.742;16.962;2023-10-31T07:14:59;23.10;;;16.00;;
73678;SDS011;61978;52.742;16.962;2023-10-31T07:17:26;25.90;;;14.90;;
73678;SDS011;61978;52.742;16.962;2023-10-31T07:19:51;23.20;;;15.80;;
73678;SDS011;61978;52.742;16.962;2023-10-31T07:22:17;20.10;;;15.70;;
73678;SDS011;61978;52.742;16.962;2023-10-31T07:24:43;30.50;;;18.10;;
73678;SDS011;61978;52.742;16.962;2023-10-31T07:27:09;23.40;;;16.20;;
73678;SDS011;61978;52.742;16.962;2023-10-31T07:29:34;29.00;;;17.90;;
73678;SDS011;61978;52.742;16.962;2023-10-31T07:32:00;25.00;;;17.00;;
73678;SDS011;61978;52.742;16.962;2023-10-31T07:34:26;23.60;;;17.20;;
73678;SDS011;61978;52.742;16.962;2023-10-31T07:36:52;25.50;;;17.40;;
73678;SDS011;61978;52.742;16.962;2023-10-31T07:39:17;23.10;;;16.50;;
73678;SDS011;61978;52.742;16.962;2023-10-31T07:41:43;24.70;;;16.40;;
73678;SDS011;61978;52.742;16.962;2023-10-31T07:44:09;21.50;;;16.80;;
73678;SDS011;61978;52.742;16.962;2023-10-31T07:46:35;19.20;;;15.90;;
73678;SDS011;61978;52.742;16.962;2023-10-31T07:49:01;24.40;;;17.30;;
73678;SDS011;61978;52.742;16.962;2023-10-31T07:51:26;19.70;;;16.10;;
73678;SDS011;61978;52.742;16.962;2023-10-31T07:53:52;22.00;;;15.70;;
73678;SDS011;61978;52.742;16.962;2023-10-31T07:56:18;19.30;;;15.30;;
73678;SDS011;61978;52.742;16.962;2023-10-31T07:58:48;18.90;;;13.80;;
73678;SDS011;61978;52.742;16.962;2023-10-31T08:01:16;20.00;;;16.00;;
73678;SDS011;61978;52.742;16.962;2023-10-31T08:03:43;16.80;;;14.40;;
73678;SDS011;61978;52.742;16.962;2023-10-31T08:06:10;14.10;;;11.90;;
73678;SDS011;61978;52.742;16.962;2023-10-31T08:08:36;12.30;;;11.10;;
73678;SDS011;61978;52.742;16.962;2023-10-31T08:11:02;13.50;;;11.60;;
73678;SDS011;61978;52.742;16.962;2023-10-31T08:13:29;13.70;;;11.60;;
73678;SDS011;61978;52.742;16.962;2023-10-31T08:15:55;13.80;;;11.70;;
73678;SDS011;61978;52.742;16.962;2023-10-31T08:18:22;11.90;;;10.40;;
73678;SDS011;61978;52.742;16.962;2023-10-31T08:20:48;13.60;;;12.20;;
73678;SDS011;61978;52.742;16.962;2023-10-31T08:23:16;14.80;;;10.50;;
73678;SDS011;61978;52.742;16.962;2023-10-31T08:25:43;19.90;;;11.40;;
73678;SDS011;61978;52.742;16.962;2023-10-31T08:28:09;14.10;;;10.70;;
73678;SDS011;61978;52.742;16.962;2023-10-31T08:30:35;10.70;;;9.60;;
73678;SDS011;61978;52.742;16.962;2023-10-31T08:33:01;12.40;;;9.40;;
73678;SDS011;61978;52.742;16.962;2023-10-31T08:35:27;12.30;;;9.10;;
73678;SDS011;61978;52.742;16.962;2023-10-31T08:37:53;11.20;;;9.40;;
73678;SDS011;61978;52.742;16.962;2023-10-31T08:40:19;11.30;;;9.10;;
73678;SDS011;61978;52.742;16.962;2023-10-31T08:42:46;9.50;;;8.50;;
73678;SDS011;61978;52.742;16.962;2023-10-31T08:45:11;10.00;;;8.50;;
73678;SDS011;61978;52.742;16.962;2023-10-31T08:47:37;10.10;;;8.10;;
73678;SDS011;61978;52.742;16.962;2023-10-31T08:50:03;9.90;;;8.50;;
73678;SDS011;61978;52.742;16.962;2023-10-31T08:52:29;10.20;;;9.00;;
73678;SDS011;61978;52.742;16.962;2023-10-31T08:54:55;10.60;;;8.50;;
73678;SDS011;61978;52.742;16.962;2023-10-31T08:57:21;9.30;;;8.50;;
73678;SDS011;61978;52.742;16.962;2023-10-31T08:59:47;9.40;;;8.10;;
73678;SDS011;61978;52.742;16.962;2023-10-31T09:02:13;9.00;;;8.00;;
73678;SDS011;61978;52.742;16.962;2023-10-31T09:04:38;11.40;;;8.70;;
73678;SDS011;61978;52.742;16.962;2023-10-31T09:07:04;8.90;;;8.00;;
73678;SDS011;61978;52.742;16.962;2023-10-31T09:09:30;15.50;;;10.90;;
73678;SDS011;61978;52.742;16.962;2023-10-31T09:11:55;11.20;;;9.10;;
73678;SDS011;61978;52.742;16.962;2023-10-31T09:14:21;9.60;;;8.60;;
73678;SDS011;61978;52.742;16.962;2023-10-31T09:16:49;10.60;;;9.60;;
73678;SDS011;61978;52.742;16.962;2023-10-31T09:19:16;11.50;;;9.90;;
73678;SDS011;61978;52.742;16.962;2023-10-31T09:21:43;11.20;;;10.00;;
73678;SDS011;61978;52.742;16.962;2023-10-31T09:24:08;12.60;;;11.30;;
73678;SDS011;61978;52.742;16.962;2023-10-31T09:26:34;14.60;;;11.90;;
73678;SDS011;61978;52.742;16.962;2023-10-31T09:29:00;12.60;;;11.30;;
73678;SDS011;61978;52.742;16.962;2023-10-31T09:31:26;15.80;;;10.80;;
73678;SDS011;61978;52.742;16.962;2023-10-31T09:33:52;13.60;;;11.90;;
73678;SDS011;61978;52.742;16.962;2023-10-31T09:36:19;17.80;;;12.00;;
73678;SDS011;61978;52.742;16.962;2023-10-31T09:38:45;13.00;;;11.70;;
73678;SDS011;61978;52.742;16.962;2023-10-31T09:41:12;14.40;;;12.00;;
73678;SDS011;61978;52.742;16.962;2023-10-31T09:43:37;13.90;;;12.30;;
73678;SDS011;61978;52.742;16.962;2023-10-31T09:46:03;14.60;;;12.70;;
73678;SDS011;61978;52.742;16.962;2023-10-31T09:48:31;15.60;;;12.40;;
73678;SDS011;61978;52.742;16.962;2023-10-31T09:50:57;18.80;;;12.60;;
73678;SDS011;61978;52.742;16.962;2023-10-31T09:53:23;14.00;;;12.60;;
73678;SDS011;61978;52.742;16.962;2023-10-31T09:55:49;13.00;;;11.50;;
73678;SDS011;61978;52.742;16.962;2023-10-31T09:58:15;14.30;;;12.80;;
73678;SDS011;61978;52.742;16.962;2023-10-31T10:00:41;13.40;;;12.00;;
73678;SDS011;61978;52.742;16.962;2023-10-31T10:03:07;13.20;;;11.40;;
73678;SDS011;61978;52.742;16.962;2023-10-31T10:05:36;10.60;;;9.50;;
73678;SDS011;61978;52.742;16.962;2023-10-31T10:08:19;10.80;;;8.50;;
73678;SDS011;61978;52.742;16.962;2023-10-31T10:11:06;9.60;;;7.60;;
73678;SDS011;61978;52.742;16.962;2023-10-31T10:13:32;9.00;;;7.40;;
73678;SDS011;61978;52.742;16.962;2023-10-31T10:15:57;7.10;;;6.40;;
73678;SDS011;61978;52.742;16.962;2023-10-31T10:18:28;6.80;;;6.10;;
73678;SDS011;61978;52.742;16.962;2023-10-31T10:20:55;6.60;;;5.80;;
73678;SDS011;61978;52.742;16.962;2023-10-31T10:23:22;5.40;;;4.90;;
73678;SDS011;61978;52.742;16.962;2023-10-31T10:25:51;6.30;;;5.60;;
73678;SDS011;61978;52.742;16.962;2023-10-31T10:28:18;7.90;;;4.90;;
73678;SDS011;61978;52.742;16.962;2023-10-31T10:30:49;6.50;;;5.50;;
73678;SDS011;61978;52.742;16.962;2023-10-31T10:33:15;9.70;;;5.40;;
73678;SDS011;61978;52.742;16.962;2023-10-31T10:35:42;8.30;;;5.30;;
73678;SDS011;61978;52.742;16.962;2023-10-31T10:38:10;7.70;;;5.30;;
73678;SDS011;61978;52.742;16.962;2023-10-31T10:40:40;5.60;;;5.00;;
73678;SDS011;61978;52.742;16.962;2023-10-31T10:43:11;6.80;;;4.90;;
73678;SDS011;61978;52.742;16.962;2023-10-31T10:45:38;5.00;;;4.40;;
73678;SDS011;61978;52.742;16.962;2023-10-31T10:48:08;4.40;;;4.00;;
73678;SDS011;61978;52.742;16.962;2023-10-31T10:50:36;4.60;;;4.20;;
73678;SDS011;61978;52.742;16.962;2023-10-31T10:53:24;4.30;;;3.90;;
73678;SDS011;61978;52.742;16.962;2023-10-31T10:56:08;6.80;;;4.40;;
73678;SDS011;61978;52.742;16.962;2023-10-31T11:01:32;5.70;;;4.40;;
73678;SDS011;61978;52.742;16.962;2023-10-31T11:03:58;6.10;;;4.20;;
73678;SDS011;61978;52.742;16.962;2023-10-31T11:06:24;4.50;;;4.10;;
73678;SDS011;61978;52.742;16.962;2023-10-31T11:08:52;4.30;;;3.70;;
73678;SDS011;61978;52.742;16.962;2023-10-31T11:11:18;7.30;;;4.10;;
73678;SDS011;61978;52.742;16.962;2023-10-31T11:13:45;6.90;;;4.00;;
73678;SDS011;61978;52.742;16.962;2023-10-31T11:16:23;9.90;;;5.40;;
73678;SDS011;61978;52.742;16.962;2023-10-31T11:18:51;6.80;;;5.20;;
73678;SDS011;61978;52.742;16.962;2023-10-31T11:21:17;6.40;;;5.70;;
73678;SDS011;61978;52.742;16.962;2023-10-31T11:23:43;6.80;;;5.60;;
73678;SDS011;61978;52.742;16.962;2023-10-31T11:26:09;8.20;;;5.60;;
73678;SDS011;61978;52.742;16.962;2023-10-31T11:28:35;9.30;;;7.00;;
73678;SDS011;61978;52.742;16.962;2023-10-31T11:31:01;7.40;;;6.60;;
73678;SDS011;61978;52.742;16.962;2023-10-31T11:33:28;7.30;;;6.60;;
73678;SDS011;61978;52.742;16.962;2023-10-31T11:36:00;11.30;;;7.90;;
73678;SDS011;61978;52.742;16.962;2023-10-31T11:38:36;8.40;;;6.90;;
73678;SDS011;61978;52.742;16.962;2023-10-31T11:41:03;8.40;;;7.00;;
73678;SDS011;61978;52.742;16.962;2023-10-31T11:43:37;6.70;;;6.00;;
73678;SDS011;61978;52.742;16.962;2023-10-31T11:46:20;5.80;;;5.10;;
73678;SDS011;61978;52.742;16.962;2023-10-31T11:48:51;6.80;;;4.40;;
73678;SDS011;61978;52.742;16.962;2023-10-31T11:51:18;5.80;;;4.60;;
73678;SDS011;61978;52.742;16.962;2023-10-31T11:53:44;6.60;;;4.20;;
73678;SDS011;61978;52.742;16.962;2023-10-31T11:56:17;4.20;;;3.80;;
73678;SDS011;61978;52.742;16.962;2023-10-31T11:58:43;2.60;;;2.30;;
73678;SDS011;61978;52.742;16.962;2023-10-31T12:01:09;4.10;;;2.30;;
73678;SDS011;61978;52.742;16.962;2023-10-31T12:03:39;8.90;;;5.30;;
73678;SDS011;61978;52.742;16.962;2023-10-31T12:06:05;1.20;;;0.70;;
73678;SDS011;61978;52.742;16.962;2023-10-31T12:08:38;1.30;;;1.10;;
73678;SDS011;61978;52.742;16.962;2023-10-31T12:11:08;9.60;;;5.10;;
73678;SDS011;61978;52.742;16.962;2023-10-31T12:13:36;3.20;;;2.00;;
73678;SDS011;61978;52.742;16.962;2023-10-31T12:16:02;4.80;;;2.20;;
73678;SDS011;61978;52.742;16.962;2023-10-31T12:18:28;1.70;;;1.30;;
73678;SDS011;61978;52.742;16.962;2023-10-31T12:20:56;2.70;;;2.30;;
73678;SDS011;61978;52.742;16.962;2023-10-31T12:23:40;2.30;;;1.60;;
73678;SDS011;61978;52.742;16.962;2023-10-31T12:26:06;3.20;;;0.90;;
73678;SDS011;61978;52.742;16.962;2023-10-31T12:28:31;1.90;;;1.10;;
73678;SDS011;61978;52.742;16.962;2023-10-31T12:30:57;6.10;;;1.80;;
73678;SDS011;61978;52.742;16.962;2023-10-31T12:33:26;1.00;;;0.80;;
73678;SDS011;61978;52.742;16.962;2023-10-31T12:35:52;1.70;;;0.80;;
73678;SDS011;61978;52.742;16.962;2023-10-31T12:38:22;2.00;;;1.30;;
73678;SDS011;61978;52.742;16.962;2023-10-31T12:40:47;1.60;;;0.70;;
73678;SDS011;61978;52.742;16.962;2023-10-31T12:43:14;2.00;;;0.70;;
73678;SDS011;61978;52.742;16.962;2023-10-31T12:45:41;6.50;;;3.50;;
73678;SDS011;61978;52.742;16.962;2023-10-31T12:48:07;3.80;;;2.20;;
73678;SDS011;61978;52.742;16.962;2023-10-31T12:50:34;2.20;;;1.00;;
73678;SDS011;61978;52.742;16.962;2023-10-31T12:53:08;1.50;;;0.50;;
73678;SDS011;61978;52.742;16.962;2023-10-31T12:55:40;1.70;;;0.50;;
73678;SDS011;61978;52.742;16.962;2023-10-31T12:58:07;0.90;;;0.80;;
73678;SDS011;61978;52.742;16.962;2023-10-31T13:00:35;1.50;;;0.70;;
73678;SDS011;61978;52.742;16.962;2023-10-31T13:03:06;0.80;;;0.70;;
73678;SDS011;61978;52.742;16.962;2023-10-31T13:05:33;1.90;;;0.70;;
73678;SDS011;61978;52.742;16.962;2023-10-31T13:07:59;2.00;;;0.60;;
73678;SDS011;61978;52.742;16.962;2023-10-31T13:10:32;1.00;;;0.80;;
73678;SDS011;61978;52.742;16.962;2023-10-31T13:12:58;2.40;;;0.60;;
73678;SDS011;61978;52.742;16.962;2023-10-31T13:15:24;1.70;;;0.70;;
73678;SDS011;61978;52.742;16.962;2023-10-31T13:17:50;1.10;;;0.60;;
73678;SDS011;61978;52.742;16.962;2023-10-31T13:20:18;1.80;;;0.60;;
73678;SDS011;61978;52.742;16.962;2023-10-31T13:22:44;0.60;;;0.60;;
73678;SDS011;61978;52.742;16.962;2023-10-31T13:25:11;2.10;;;0.70;;
73678;SDS011;61978;52.742;16.962;2023-10-31T13:27:37;2.60;;;0.70;;
73678;SDS011;61978;52.742;16.962;2023-10-31T13:30:03;1.40;;;0.70;;
73678;SDS011;61978;52.742;16.962;2023-10-31T13:32:30;1.70;;;1.00;;
73678;SDS011;61978;52.742;16.962;2023-10-31T13:34:56;3.60;;;0.60;;
73678;SDS011;61978;52.742;16.962;2023-10-31T13:37:21;3.40;;;1.60;;
73678;SDS011;61978;52.742;16.962;2023-10-31T13:39:47;3.60;;;3.00;;
73678;SDS011;61978;52.742;16.962;2023-10-31T13:42:13;2.60;;;1.70;;
73678;SDS011;61978;52.742;16.962;2023-10-31T13:44:40;2.40;;;2.20;;
73678;SDS011;61978;52.742;16.962;2023-10-31T13:47:06;6.10;;;3.50;;
73678;SDS011;61978;52.742;16.962;2023-10-31T13:49:32;7.00;;;3.90;;
73678;SDS011;61978;52.742;16.962;2023-10-31T13:51:57;5.80;;;2.10;;
73678;SDS011;61978;52.742;16.962;2023-10-31T13:54:23;5.80;;;3.50;;
73678;SDS011;61978;52.742;16.962;2023-10-31T13:56:49;8.80;;;1.60;;
73678;SDS011;61978;52.742;16.962;2023-10-31T13:59:14;1.70;;;1.20;;
73678;SDS011;61978;52.742;16.962;2023-10-31T14:01:41;2.40;;;1.10;;
73678;SDS011;61978;52.742;16.962;2023-10-31T14:04:09;6.30;;;2.30;;
73678;SDS011;61978;52.742;16.962;2023-10-31T14:06:35;6.80;;;4.10;;
73678;SDS011;61978;52.742;16.962;2023-10-31T14:09:01;4.40;;;3.30;;
73678;SDS011;61978;52.742;16.962;2023-10-31T14:11:30;3.40;;;1.60;;
73678;SDS011;61978;52.742;16.962;2023-10-31T14:13:56;6.10;;;2.10;;
73678;SDS011;61978;52.742;16.962;2023-10-31T14:16:28;23.90;;;11.90;;
73678;SDS011;61978;52.742;16.962;2023-10-31T14:18:55;27.70;;;14.20;;